sensor_id;sensor_type;location;lat;lon;timestamp;P1;durP1;ratioP1;P2;durP2;ratioP2
39656;SDS011;25337;51.478;7.510;2023-11-19T00:01:22;3.17;;;1.30;;
39656;SDS011;25337;51.478;7.510;2023-11-19T00:03:48;4.13;;;1.50;;
39656;SDS011;25337;51.478;7.510;2023-11-19T00:06:14;3.80;;;1.40;;
39656;SDS011;25337;51.478;7.510;2023-11-19T00:08:41;4.10;;;1.60;;
39656;SDS011;25337;51.478;7.510;2023-11-19T00:11:08;4.68;;;1.35;;
39656;SDS011;25337;51.478;7.510;2023-11-19T00:13:34;2.47;;;1.00;;
39656;SDS011;25337;51.478;7.510;2023-11-19T00:15:59;4.85;;;1.70;;
39656;SDS011;25337;51.478;7.510;2023-11-19T00:18:29;1.67;;;0.80;;
39656;SDS011;25337;51.478;7.510;2023-11-19T00:20:57;3.92;;;1.63;;
39656;SDS011;25337;51.478;7.510;2023-11-19T00:23:23;4.60;;;1.65;;
39656;SDS011;25337;51.478;7.510;2023-11-19T00:25:49;4.80;;;1.88;;
39656;SDS011;25337;51.478;7.510;2023-11-19T00:28:14;4.55;;;1.80;;
39656;SDS011;25337;51.478;7.510;2023-11-19T00:30:40;5.57;;;2.05;;
39656;SDS011;25337;51.478;7.510;2023-11-19T00:33:06;5.80;;;2.17;;
39656;SDS011;25337;51.478;7.510;2023-11-19T00:35:31;6.80;;;2.05;;
39656;SDS011;25337;51.478;7.510;2023-11-19T00:37:58;8.18;;;2.33;;
39656;SDS011;25337;51.478;7.510;2023-11-19T00:40:23;5.20;;;2.25;;
39656;SDS011;25337;51.478;7.510;2023-11-19T00:42:49;7.18;;;2.75;;
39656;SDS011;25337;51.478;7.510;2023-11-19T00:45:15;5.60;;;2.40;;
39656;SDS011;25337;51.478;7.510;2023-11-19T00:47:43;6.00;;;2.40;;
39656;SDS011;25337;51.478;7.510;2023-11-19T00:50:09;6.65;;;2.60;;
39656;SDS011;25337;51.478;7.510;2023-11-19T00:52:35;7.95;;;2.53;;
39656;SDS011;25337;51.478;7.510;2023-11-19T00:55:01;8.85;;;2.90;;
39656;SDS011;25337;51.478;7.510;2023-11-19T00:57:27;7.22;;;3.00;;
39656;SDS011;25337;51.478;7.510;2023-11-19T00:59:53;7.95;;;3.00;;
39656;SDS011;25337;51.478;7.510;2023-11-19T01:02:18;7.30;;;3.08;;
39656;SDS011;25337;51.478;7.510;2023-11-19T01:04:44;6.93;;;3.28;;
39656;SDS011;25337;51.478;7.510;2023-11-19T01:07:11;8.32;;;3.58;;
39656;SDS011;25337;51.478;7.510;2023-11-19T01:09:37;6.72;;;3.08;;
39656;SDS011;25337;51.478;7.510;2023-11-19T01:12:03;8.88;;;4.05;;
39656;SDS011;25337;51.478;7.510;2023-11-19T01:14:29;7.00;;;3.40;;
39656;SDS011;25337;51.478;7.510;2023-11-19T01:16:55;7.07;;;3.00;;
39656;SDS011;25337;51.478;7.510;2023-11-19T01:19:21;8.02;;;4.00;;
39656;SDS011;25337;51.478;7.510;2023-11-19T01:21:48;8.35;;;3.80;;
39656;SDS011;25337;51.478;7.510;2023-11-19T01:24:14;8.80;;;4.00;;
39656;SDS011;25337;51.478;7.510;2023-11-19T01:26:40;9.68;;;4.55;;
39656;SDS011;25337;51.478;7.510;2023-11-19T01:29:10;7.47;;;4.00;;
39656;SDS011;25337;51.478;7.510;2023-11-19T01:31:39;9.07;;;4.10;;
39656;SDS011;25337;51.478;7.510;2023-11-19T01:34:08;12.02;;;4.07;;
39656;SDS011;25337;51.478;7.510;2023-11-19T01:36:34;9.10;;;4.70;;
39656;SDS011;25337;51.478;7.510;2023-11-19T01:38:59;12.57;;;4.13;;
39656;SDS011;25337;51.478;7.510;2023-11-19T01:41:26;10.90;;;4.35;;
39656;SDS011;25337;51.478;7.510;2023-11-19T01:43:54;8.27;;;3.90;;
39656;SDS011;25337;51.478;7.510;2023-11-19T01:46:19;8.75;;;4.63;;
39656;SDS011;25337;51.478;7.510;2023-11-19T01:48:45;9.30;;;4.65;;
39656;SDS011;25337;51.478;7.510;2023-11-19T01:51:14;12.20;;;4.30;;
39656;SDS011;25337;51.478;7.510;2023-11-19T01:53:41;7.95;;;4.05;;
39656;SDS011;25337;51.478;7.510;2023-11-19T01:56:08;8.80;;;3.90;;
39656;SDS011;25337;51.478;7.510;2023-11-19T01:58:36;7.20;;;3.58;;
39656;SDS011;25337;51.478;7.510;2023-11-19T02:01:04;6.97;;;3.55;;
39656;SDS011;25337;51.478;7.510;2023-11-19T02:03:33;7.43;;;3.40;;
39656;SDS011;25337;51.478;7.510;2023-11-19T02:06:02;10.13;;;3.72;;
39656;SDS011;25337;51.478;7.510;2023-11-19T02:08:28;7.83;;;4.20;;
39656;SDS011;25337;51.478;7.510;2023-11-19T02:10:57;8.30;;;3.70;;
39656;SDS011;25337;51.478;7.510;2023-11-19T02:13:23;8.18;;;3.85;;
39656;SDS011;25337;51.478;7.510;2023-11-19T02:15:50;9.15;;;3.67;;
39656;SDS011;25337;51.478;7.510;2023-11-19T02:18:25;7.10;;;3.30;;
39656;SDS011;25337;51.478;7.510;2023-11-19T02:20:53;8.52;;;3.47;;
39656;SDS011;25337;51.478;7.510;2023-11-19T02:23:20;8.43;;;3.38;;
39656;SDS011;25337;51.478;7.510;2023-11-19T02:25:47;8.05;;;3.60;;
39656;SDS011;25337;51.478;7.510;2023-11-19T02:28:25;9.60;;;3.53;;
39656;SDS011;25337;51.478;7.510;2023-11-19T02:30:51;7.07;;;2.85;;
39656;SDS011;25337;51.478;7.510;2023-11-19T02:33:16;8.73;;;3.58;;
39656;SDS011;25337;51.478;7.510;2023-11-19T02:35:42;7.38;;;3.10;;
39656;SDS011;25337;51.478;7.510;2023-11-19T02:38:07;11.68;;;3.65;;
39656;SDS011;25337;51.478;7.510;2023-11-19T02:40:33;11.48;;;3.25;;
39656;SDS011;25337;51.478;7.510;2023-11-19T02:42:59;10.40;;;3.95;;
39656;SDS011;25337;51.478;7.510;2023-11-19T02:45:25;8.05;;;3.03;;
39656;SDS011;25337;51.478;7.510;2023-11-19T02:47:51;7.63;;;2.65;;
39656;SDS011;25337;51.478;7.510;2023-11-19T02:50:20;11.57;;;3.67;;
39656;SDS011;25337;51.478;7.510;2023-11-19T02:52:53;8.85;;;2.78;;
39656;SDS011;25337;51.478;7.510;2023-11-19T02:55:21;9.18;;;3.13;;
39656;SDS011;25337;51.478;7.510;2023-11-19T02:57:48;10.57;;;3.03;;
39656;SDS011;25337;51.478;7.510;2023-11-19T03:00:15;14.13;;;3.17;;
39656;SDS011;25337;51.478;7.510;2023-11-19T03:02:42;9.07;;;2.40;;
39656;SDS011;25337;51.478;7.510;2023-11-19T03:05:14;13.80;;;3.10;;
39656;SDS011;25337;51.478;7.510;2023-11-19T03:10:08;13.55;;;2.78;;
39656;SDS011;25337;51.478;7.510;2023-11-19T03:12:38;10.35;;;2.72;;
39656;SDS011;25337;51.478;7.510;2023-11-19T03:15:08;9.82;;;2.40;;
39656;SDS011;25337;51.478;7.510;2023-11-19T03:17:35;12.10;;;2.55;;
39656;SDS011;25337;51.478;7.510;2023-11-19T03:20:08;9.50;;;2.87;;
39656;SDS011;25337;51.478;7.510;2023-11-19T03:22:38;12.45;;;2.40;;
39656;SDS011;25337;51.478;7.510;2023-11-19T03:25:04;11.40;;;2.75;;
39656;SDS011;25337;51.478;7.510;2023-11-19T03:27:33;11.52;;;2.97;;
39656;SDS011;25337;51.478;7.510;2023-11-19T03:30:00;16.55;;;3.08;;
39656;SDS011;25337;51.478;7.510;2023-11-19T03:32:26;13.73;;;3.10;;
39656;SDS011;25337;51.478;7.510;2023-11-19T03:34:52;10.65;;;2.38;;
39656;SDS011;25337;51.478;7.510;2023-11-19T03:37:18;10.50;;;2.60;;
39656;SDS011;25337;51.478;7.510;2023-11-19T03:39:47;11.38;;;2.28;;
39656;SDS011;25337;51.478;7.510;2023-11-19T03:42:12;16.02;;;3.40;;
39656;SDS011;25337;51.478;7.510;2023-11-19T03:44:38;13.50;;;3.05;;
39656;SDS011;25337;51.478;7.510;2023-11-19T03:47:04;15.63;;;3.40;;
39656;SDS011;25337;51.478;7.510;2023-11-19T03:49:30;9.93;;;3.38;;
39656;SDS011;25337;51.478;7.510;2023-11-19T03:51:55;18.05;;;3.88;;
39656;SDS011;25337;51.478;7.510;2023-11-19T03:54:21;17.67;;;3.10;;
39656;SDS011;25337;51.478;7.510;2023-11-19T03:56:48;18.08;;;3.67;;
39656;SDS011;25337;51.478;7.510;2023-11-19T03:59:13;16.20;;;3.25;;
39656;SDS011;25337;51.478;7.510;2023-11-19T04:01:40;11.30;;;2.97;;
39656;SDS011;25337;51.478;7.510;2023-11-19T04:04:06;15.15;;;4.65;;
39656;SDS011;25337;51.478;7.510;2023-11-19T04:06:32;15.88;;;3.67;;
39656;SDS011;25337;51.478;7.510;2023-11-19T04:08:57;13.43;;;3.88;;
39656;SDS011;25337;51.478;7.510;2023-11-19T04:11:23;9.60;;;2.55;;
39656;SDS011;25337;51.478;7.510;2023-11-19T04:13:48;14.30;;;4.05;;
39656;SDS011;25337;51.478;7.510;2023-11-19T04:16:14;13.38;;;3.17;;
39656;SDS011;25337;51.478;7.510;2023-11-19T04:18:40;19.48;;;4.15;;
39656;SDS011;25337;51.478;7.510;2023-11-19T04:21:06;19.08;;;3.97;;
39656;SDS011;25337;51.478;7.510;2023-11-19T04:23:32;16.55;;;3.83;;
39656;SDS011;25337;51.478;7.510;2023-11-19T04:26:00;17.20;;;4.38;;
39656;SDS011;25337;51.478;7.510;2023-11-19T04:28:27;12.97;;;4.07;;
39656;SDS011;25337;51.478;7.510;2023-11-19T04:30:53;14.57;;;3.72;;
39656;SDS011;25337;51.478;7.510;2023-11-19T04:33:21;17.77;;;3.97;;
39656;SDS011;25337;51.478;7.510;2023-11-19T04:35:46;12.23;;;3.25;;
39656;SDS011;25337;51.478;7.510;2023-11-19T04:38:12;12.95;;;2.30;;
39656;SDS011;25337;51.478;7.510;2023-11-19T04:40:37;11.80;;;2.83;;
39656;SDS011;25337;51.478;7.510;2023-11-19T04:43:03;18.23;;;3.47;;
39656;SDS011;25337;51.478;7.510;2023-11-19T04:45:29;13.52;;;2.83;;
39656;SDS011;25337;51.478;7.510;2023-11-19T04:47:55;13.50;;;3.25;;
39656;SDS011;25337;51.478;7.510;2023-11-19T04:50:20;14.52;;;3.53;;
39656;SDS011;25337;51.478;7.510;2023-11-19T04:52:53;10.55;;;2.67;;
39656;SDS011;25337;51.478;7.510;2023-11-19T04:55:18;12.85;;;3.22;;
39656;SDS011;25337;51.478;7.510;2023-11-19T04:57:44;11.52;;;3.13;;
39656;SDS011;25337;51.478;7.510;2023-11-19T05:00:10;14.35;;;3.60;;
39656;SDS011;25337;51.478;7.510;2023-11-19T05:02:36;18.80;;;3.35;;
39656;SDS011;25337;51.478;7.510;2023-11-19T05:05:02;11.15;;;2.83;;
39656;SDS011;25337;51.478;7.510;2023-11-19T05:07:29;14.23;;;2.97;;
39656;SDS011;25337;51.478;7.510;2023-11-19T05:09:55;22.35;;;3.38;;
39656;SDS011;25337;51.478;7.510;2023-11-19T05:12:23;15.18;;;3.00;;
39656;SDS011;25337;51.478;7.510;2023-11-19T05:14:48;20.23;;;4.18;;
39656;SDS011;25337;51.478;7.510;2023-11-19T05:17:18;15.98;;;3.95;;
39656;SDS011;25337;51.478;7.510;2023-11-19T05:19:44;16.75;;;3.75;;
39656;SDS011;25337;51.478;7.510;2023-11-19T05:22:10;19.40;;;2.63;;
39656;SDS011;25337;51.478;7.510;2023-11-19T05:24:35;18.27;;;4.80;;
39656;SDS011;25337;51.478;7.510;2023-11-19T05:27:01;17.73;;;3.60;;
39656;SDS011;25337;51.478;7.510;2023-11-19T05:29:27;19.42;;;3.83;;
39656;SDS011;25337;51.478;7.510;2023-11-19T05:31:53;17.83;;;4.00;;
39656;SDS011;25337;51.478;7.510;2023-11-19T05:34:20;21.67;;;5.85;;
39656;SDS011;25337;51.478;7.510;2023-11-19T05:36:46;26.77;;;4.25;;
39656;SDS011;25337;51.478;7.510;2023-11-19T05:39:11;18.90;;;2.95;;
39656;SDS011;25337;51.478;7.510;2023-11-19T05:41:37;18.90;;;4.80;;
39656;SDS011;25337;51.478;7.510;2023-11-19T05:44:03;18.88;;;4.13;;
39656;SDS011;25337;51.478;7.510;2023-11-19T05:46:28;26.50;;;4.78;;
39656;SDS011;25337;51.478;7.510;2023-11-19T05:48:54;10.35;;;2.55;;
39656;SDS011;25337;51.478;7.510;2023-11-19T05:51:19;17.25;;;3.70;;
39656;SDS011;25337;51.478;7.510;2023-11-19T05:53:45;16.52;;;4.70;;
39656;SDS011;25337;51.478;7.510;2023-11-19T05:56:10;17.10;;;3.38;;
39656;SDS011;25337;51.478;7.510;2023-11-19T05:58:36;25.02;;;4.45;;
39656;SDS011;25337;51.478;7.510;2023-11-19T06:01:04;24.15;;;4.30;;
39656;SDS011;25337;51.478;7.510;2023-11-19T06:03:32;23.63;;;4.55;;
39656;SDS011;25337;51.478;7.510;2023-11-19T06:05:58;19.25;;;4.03;;
39656;SDS011;25337;51.478;7.510;2023-11-19T06:08:23;16.02;;;3.78;;
39656;SDS011;25337;51.478;7.510;2023-11-19T06:10:52;16.27;;;3.72;;
39656;SDS011;25337;51.478;7.510;2023-11-19T06:13:17;14.25;;;2.75;;
39656;SDS011;25337;51.478;7.510;2023-11-19T06:15:43;23.17;;;3.80;;
39656;SDS011;25337;51.478;7.510;2023-11-19T06:18:11;21.50;;;3.75;;
39656;SDS011;25337;51.478;7.510;2023-11-19T06:20:37;10.18;;;2.63;;
39656;SDS011;25337;51.478;7.510;2023-11-19T06:23:03;15.15;;;3.55;;
39656;SDS011;25337;51.478;7.510;2023-11-19T06:25:31;16.25;;;3.10;;
39656;SDS011;25337;51.478;7.510;2023-11-19T06:27:57;21.85;;;4.00;;
39656;SDS011;25337;51.478;7.510;2023-11-19T06:30:23;20.33;;;3.50;;
39656;SDS011;25337;51.478;7.510;2023-11-19T06:32:51;17.52;;;3.25;;
39656;SDS011;25337;51.478;7.510;2023-11-19T06:35:17;20.40;;;3.83;;
39656;SDS011;25337;51.478;7.510;2023-11-19T06:37:42;25.23;;;3.38;;
39656;SDS011;25337;51.478;7.510;2023-11-19T06:40:08;16.33;;;3.50;;
39656;SDS011;25337;51.478;7.510;2023-11-19T06:42:34;24.52;;;4.38;;
39656;SDS011;25337;51.478;7.510;2023-11-19T06:45:01;19.20;;;3.58;;
39656;SDS011;25337;51.478;7.510;2023-11-19T06:47:27;19.98;;;3.28;;
39656;SDS011;25337;51.478;7.510;2023-11-19T06:49:53;17.52;;;2.60;;
39656;SDS011;25337;51.478;7.510;2023-11-19T06:52:19;20.60;;;2.97;;
39656;SDS011;25337;51.478;7.510;2023-11-19T06:54:45;22.05;;;4.53;;
39656;SDS011;25337;51.478;7.510;2023-11-19T06:57:11;18.95;;;2.65;;
39656;SDS011;25337;51.478;7.510;2023-11-19T06:59:37;23.45;;;3.90;;
39656;SDS011;25337;51.478;7.510;2023-11-19T07:02:02;12.90;;;3.20;;
39656;SDS011;25337;51.478;7.510;2023-11-19T07:04:29;25.23;;;3.60;;
39656;SDS011;25337;51.478;7.510;2023-11-19T07:06:55;21.77;;;4.20;;
39656;SDS011;25337;51.478;7.510;2023-11-19T07:09:21;19.65;;;4.25;;
39656;SDS011;25337;51.478;7.510;2023-11-19T07:11:48;20.40;;;3.90;;
39656;SDS011;25337;51.478;7.510;2023-11-19T07:14:15;26.85;;;4.13;;
39656;SDS011;25337;51.478;7.510;2023-11-19T07:16:41;15.18;;;3.72;;
39656;SDS011;25337;51.478;7.510;2023-11-19T07:19:07;13.60;;;3.47;;
39656;SDS011;25337;51.478;7.510;2023-11-19T07:21:34;22.92;;;4.13;;
39656;SDS011;25337;51.478;7.510;2023-11-19T07:24:00;15.50;;;3.45;;
39656;SDS011;25337;51.478;7.510;2023-11-19T07:26:25;17.08;;;2.95;;
39656;SDS011;25337;51.478;7.510;2023-11-19T07:28:52;21.63;;;3.35;;
39656;SDS011;25337;51.478;7.510;2023-11-19T07:31:17;14.38;;;2.90;;
39656;SDS011;25337;51.478;7.510;2023-11-19T07:33:44;15.77;;;4.10;;
39656;SDS011;25337;51.478;7.510;2023-11-19T07:36:11;21.42;;;3.20;;
39656;SDS011;25337;51.478;7.510;2023-11-19T07:38:37;11.52;;;2.53;;
39656;SDS011;25337;51.478;7.510;2023-11-19T07:41:03;21.23;;;3.58;;
39656;SDS011;25337;51.478;7.510;2023-11-19T07:43:30;18.67;;;3.75;;
39656;SDS011;25337;51.478;7.510;2023-11-19T07:45:56;26.52;;;3.78;;
39656;SDS011;25337;51.478;7.510;2023-11-19T07:48:24;21.70;;;4.13;;
39656;SDS011;25337;51.478;7.510;2023-11-19T07:50:51;19.20;;;3.97;;
39656;SDS011;25337;51.478;7.510;2023-11-19T07:53:17;22.02;;;4.05;;
39656;SDS011;25337;51.478;7.510;2023-11-19T07:55:44;19.80;;;3.88;;
39656;SDS011;25337;51.478;7.510;2023-11-19T07:58:12;16.38;;;2.40;;
39656;SDS011;25337;51.478;7.510;2023-11-19T08:00:40;22.75;;;2.90;;
39656;SDS011;25337;51.478;7.510;2023-11-19T08:03:06;20.15;;;2.97;;
39656;SDS011;25337;51.478;7.510;2023-11-19T08:05:35;26.20;;;4.38;;
39656;SDS011;25337;51.478;7.510;2023-11-19T08:08:01;20.48;;;2.80;;
39656;SDS011;25337;51.478;7.510;2023-11-19T08:10:26;16.58;;;4.18;;
39656;SDS011;25337;51.478;7.510;2023-11-19T08:12:55;24.55;;;3.42;;
39656;SDS011;25337;51.478;7.510;2023-11-19T08:15:20;21.52;;;3.17;;
39656;SDS011;25337;51.478;7.510;2023-11-19T08:17:46;24.05;;;3.65;;
39656;SDS011;25337;51.478;7.510;2023-11-19T08:20:12;20.20;;;3.40;;
39656;SDS011;25337;51.478;7.510;2023-11-19T08:22:40;16.13;;;3.42;;
39656;SDS011;25337;51.478;7.510;2023-11-19T08:25:05;13.30;;;2.83;;
39656;SDS011;25337;51.478;7.510;2023-11-19T08:27:31;24.48;;;3.03;;
39656;SDS011;25337;51.478;7.510;2023-11-19T08:29:57;21.85;;;3.30;;
39656;SDS011;25337;51.478;7.510;2023-11-19T08:32:26;16.10;;;4.30;;
39656;SDS011;25337;51.478;7.510;2023-11-19T08:34:52;17.43;;;2.53;;
39656;SDS011;25337;51.478;7.510;2023-11-19T08:37:18;18.23;;;2.92;;
39656;SDS011;25337;51.478;7.510;2023-11-19T08:39:49;18.58;;;3.42;;
39656;SDS011;25337;51.478;7.510;2023-11-19T08:42:16;22.27;;;3.55;;
39656;SDS011;25337;51.478;7.510;2023-11-19T08:44:42;22.10;;;3.47;;
39656;SDS011;25337;51.478;7.510;2023-11-19T08:47:15;24.73;;;3.33;;
39656;SDS011;25337;51.478;7.510;2023-11-19T08:49:42;24.42;;;3.88;;
39656;SDS011;25337;51.478;7.510;2023-11-19T08:52:11;24.05;;;3.63;;
39656;SDS011;25337;51.478;7.510;2023-11-19T08:54:37;23.48;;;4.30;;
39656;SDS011;25337;51.478;7.510;2023-11-19T08:57:03;21.20;;;4.07;;
39656;SDS011;25337;51.478;7.510;2023-11-19T08:59:29;16.63;;;2.22;;
39656;SDS011;25337;51.478;7.510;2023-11-19T09:01:55;24.63;;;3.33;;
39656;SDS011;25337;51.478;7.510;2023-11-19T09:04:20;16.98;;;3.10;;
39656;SDS011;25337;51.478;7.510;2023-11-19T09:06:47;19.95;;;4.22;;
39656;SDS011;25337;51.478;7.510;2023-11-19T09:09:14;27.50;;;3.50;;
39656;SDS011;25337;51.478;7.510;2023-11-19T09:11:39;19.77;;;3.10;;
39656;SDS011;25337;51.478;7.510;2023-11-19T09:14:05;25.20;;;4.30;;
39656;SDS011;25337;51.478;7.510;2023-11-19T09:16:31;17.75;;;3.45;;
39656;SDS011;25337;51.478;7.510;2023-11-19T09:18:57;16.55;;;3.30;;
39656;SDS011;25337;51.478;7.510;2023-11-19T09:21:24;25.58;;;3.50;;
39656;SDS011;25337;51.478;7.510;2023-11-19T09:23:54;22.23;;;3.75;;
39656;SDS011;25337;51.478;7.510;2023-11-19T09:26:20;18.75;;;4.18;;
39656;SDS011;25337;51.478;7.510;2023-11-19T09:28:46;15.98;;;3.13;;
39656;SDS011;25337;51.478;7.510;2023-11-19T09:31:14;26.38;;;5.18;;
39656;SDS011;25337;51.478;7.510;2023-11-19T09:33:43;16.80;;;2.58;;
39656;SDS011;25337;51.478;7.510;2023-11-19T09:36:11;14.35;;;2.75;;
39656;SDS011;25337;51.478;7.510;2023-11-19T09:38:39;19.45;;;2.90;;
39656;SDS011;25337;51.478;7.510;2023-11-19T09:41:05;22.88;;;3.65;;
39656;SDS011;25337;51.478;7.510;2023-11-19T09:43:34;23.63;;;3.60;;
39656;SDS011;25337;51.478;7.510;2023-11-19T09:46:05;20.40;;;3.15;;
39656;SDS011;25337;51.478;7.510;2023-11-19T09:48:32;17.75;;;3.33;;
39656;SDS011;25337;51.478;7.510;2023-11-19T09:51:00;17.17;;;3.45;;
39656;SDS011;25337;51.478;7.510;2023-11-19T09:53:26;17.17;;;3.38;;
39656;SDS011;25337;51.478;7.510;2023-11-19T09:55:52;17.25;;;3.33;;
39656;SDS011;25337;51.478;7.510;2023-11-19T09:58:18;16.33;;;3.90;;
39656;SDS011;25337;51.478;7.510;2023-11-19T10:00:44;16.60;;;2.42;;
39656;SDS011;25337;51.478;7.510;2023-11-19T10:03:10;19.15;;;2.95;;
39656;SDS011;25337;51.478;7.510;2023-11-19T10:05:39;22.55;;;3.60;;
39656;SDS011;25337;51.478;7.510;2023-11-19T10:08:07;22.38;;;3.47;;
39656;SDS011;25337;51.478;7.510;2023-11-19T10:10:35;25.02;;;5.05;;
39656;SDS011;25337;51.478;7.510;2023-11-19T10:13:01;21.20;;;3.95;;
39656;SDS011;25337;51.478;7.510;2023-11-19T10:15:33;21.50;;;5.22;;
39656;SDS011;25337;51.478;7.510;2023-11-19T10:18:02;18.45;;;3.00;;
39656;SDS011;25337;51.478;7.510;2023-11-19T10:20:35;12.43;;;2.63;;
39656;SDS011;25337;51.478;7.510;2023-11-19T10:23:01;17.02;;;3.03;;
39656;SDS011;25337;51.478;7.510;2023-11-19T10:25:28;18.30;;;3.78;;
39656;SDS011;25337;51.478;7.510;2023-11-19T10:27:54;21.85;;;3.67;;
39656;SDS011;25337;51.478;7.510;2023-11-19T10:30:21;13.63;;;3.28;;
39656;SDS011;25337;51.478;7.510;2023-11-19T10:33:07;15.40;;;2.95;;
39656;SDS011;25337;51.478;7.510;2023-11-19T10:35:34;16.77;;;3.72;;
39656;SDS011;25337;51.478;7.510;2023-11-19T10:38:03;17.58;;;3.05;;
39656;SDS011;25337;51.478;7.510;2023-11-19T10:40:40;25.58;;;4.15;;
39656;SDS011;25337;51.478;7.510;2023-11-19T10:43:06;19.17;;;3.70;;
39656;SDS011;25337;51.478;7.510;2023-11-19T10:45:35;15.82;;;2.97;;
39656;SDS011;25337;51.478;7.510;2023-11-19T10:48:02;18.10;;;2.85;;
39656;SDS011;25337;51.478;7.510;2023-11-19T10:50:38;22.02;;;3.60;;
39656;SDS011;25337;51.478;7.510;2023-11-19T10:53:06;21.25;;;3.75;;
39656;SDS011;25337;51.478;7.510;2023-11-19T10:55:34;21.73;;;3.38;;
39656;SDS011;25337;51.478;7.510;2023-11-19T10:58:02;18.88;;;3.58;;
39656;SDS011;25337;51.478;7.510;2023-11-19T11:00:38;17.77;;;2.83;;
39656;SDS011;25337;51.478;7.510;2023-11-19T11:03:17;19.30;;;3.03;;
39656;SDS011;25337;51.478;7.510;2023-11-19T11:05:46;17.60;;;2.80;;
39656;SDS011;25337;51.478;7.510;2023-11-19T11:08:12;23.42;;;4.30;;
39656;SDS011;25337;51.478;7.510;2023-11-19T11:10:52;22.10;;;3.08;;
39656;SDS011;25337;51.478;7.510;2023-11-19T11:13:19;26.75;;;3.67;;
39656;SDS011;25337;51.478;7.510;2023-11-19T11:15:47;17.92;;;3.25;;
39656;SDS011;25337;51.478;7.510;2023-11-19T11:18:14;17.75;;;3.35;;
39656;SDS011;25337;51.478;7.510;2023-11-19T11:20:40;15.90;;;3.20;;
39656;SDS011;25337;51.478;7.510;2023-11-19T11:23:21;20.00;;;3.13;;
39656;SDS011;25337;51.478;7.510;2023-11-19T11:28:43;20.13;;;4.18;;
39656;SDS011;25337;51.478;7.510;2023-11-19T11:36:45;12.80;;;2.58;;
39656;SDS011;25337;51.478;7.510;2023-11-19T11:39:18;19.63;;;3.28;;
39656;SDS011;25337;51.478;7.510;2023-11-19T11:41:47;22.85;;;4.00;;
39656;SDS011;25337;51.478;7.510;2023-11-19T11:48:17;18.95;;;2.88;;
39656;SDS011;25337;51.478;7.510;2023-11-19T11:50:23;19.33;;;3.65;;
39656;SDS011;25337;51.478;7.510;2023-11-19T11:55:36;16.15;;;2.95;;
39656;SDS011;25337;51.478;7.510;2023-11-19T11:58:17;20.90;;;3.95;;
39656;SDS011;25337;51.478;7.510;2023-11-19T12:00:43;17.40;;;3.30;;
39656;SDS011;25337;51.478;7.510;2023-11-19T12:03:11;14.02;;;2.65;;
39656;SDS011;25337;51.478;7.510;2023-11-19T12:05:43;17.35;;;2.78;;
39656;SDS011;25337;51.478;7.510;2023-11-19T12:08:10;12.63;;;2.47;;
39656;SDS011;25337;51.478;7.510;2023-11-19T12:10:44;10.80;;;2.45;;
39656;SDS011;25337;51.478;7.510;2023-11-19T12:13:14;19.15;;;3.17;;
39656;SDS011;25337;51.478;7.510;2023-11-19T12:18:22;13.40;;;2.30;;
39656;SDS011;25337;51.478;7.510;2023-11-19T12:20:48;12.57;;;2.83;;
39656;SDS011;25337;51.478;7.510;2023-11-19T12:23:14;22.35;;;3.90;;
39656;SDS011;25337;51.478;7.510;2023-11-19T12:25:40;18.65;;;4.50;;
39656;SDS011;25337;51.478;7.510;2023-11-19T12:28:11;20.23;;;3.38;;
39656;SDS011;25337;51.478;7.510;2023-11-19T12:30:38;18.92;;;5.85;;
39656;SDS011;25337;51.478;7.510;2023-11-19T12:33:07;17.27;;;2.88;;
39656;SDS011;25337;51.478;7.510;2023-11-19T12:35:38;16.95;;;3.42;;
39656;SDS011;25337;51.478;7.510;2023-11-19T12:38:08;15.48;;;2.85;;
39656;SDS011;25337;51.478;7.510;2023-11-19T12:40:43;18.13;;;3.58;;
39656;SDS011;25337;51.478;7.510;2023-11-19T12:43:08;20.30;;;2.60;;
39656;SDS011;25337;51.478;7.510;2023-11-19T12:45:35;20.08;;;2.88;;
39656;SDS011;25337;51.478;7.510;2023-11-19T12:48:04;15.45;;;3.05;;
39656;SDS011;25337;51.478;7.510;2023-11-19T12:50:49;12.00;;;3.25;;
39656;SDS011;25337;51.478;7.510;2023-11-19T12:53:22;17.83;;;3.10;;
39656;SDS011;25337;51.478;7.510;2023-11-19T12:55:49;17.67;;;3.38;;
39656;SDS011;25337;51.478;7.510;2023-11-19T12:58:31;15.05;;;2.60;;
39656;SDS011;25337;51.478;7.510;2023-11-19T13:01:02;11.30;;;2.38;;
39656;SDS011;25337;51.478;7.510;2023-11-19T13:03:29;20.33;;;3.38;;
39656;SDS011;25337;51.478;7.510;2023-11-19T13:06:05;17.35;;;3.05;;
39656;SDS011;25337;51.478;7.510;2023-11-19T13:11:04;13.48;;;2.60;;
39656;SDS011;25337;51.478;7.510;2023-11-19T13:13:31;15.90;;;2.83;;
39656;SDS011;25337;51.478;7.510;2023-11-19T13:16:03;14.52;;;2.92;;
39656;SDS011;25337;51.478;7.510;2023-11-19T13:18:36;21.60;;;4.05;;
39656;SDS011;25337;51.478;7.510;2023-11-19T13:21:01;18.52;;;4.07;;
39656;SDS011;25337;51.478;7.510;2023-11-19T13:23:27;13.75;;;2.35;;
39656;SDS011;25337;51.478;7.510;2023-11-19T13:25:53;14.30;;;2.95;;
39656;SDS011;25337;51.478;7.510;2023-11-19T13:28:18;12.95;;;2.85;;
39656;SDS011;25337;51.478;7.510;2023-11-19T13:30:46;17.70;;;3.70;;
39656;SDS011;25337;51.478;7.510;2023-11-19T13:33:12;19.60;;;4.68;;
39656;SDS011;25337;51.478;7.510;2023-11-19T13:35:38;14.30;;;3.25;;
39656;SDS011;25337;51.478;7.510;2023-11-19T13:38:05;15.50;;;2.50;;
39656;SDS011;25337;51.478;7.510;2023-11-19T13:40:33;20.52;;;3.00;;
39656;SDS011;25337;51.478;7.510;2023-11-19T13:42:59;11.07;;;2.10;;
39656;SDS011;25337;51.478;7.510;2023-11-19T13:45:25;10.80;;;2.33;;
39656;SDS011;25337;51.478;7.510;2023-11-19T13:47:51;16.30;;;3.33;;
39656;SDS011;25337;51.478;7.510;2023-11-19T13:50:17;12.90;;;2.30;;
39656;SDS011;25337;51.478;7.510;2023-11-19T13:52:43;13.50;;;2.95;;
39656;SDS011;25337;51.478;7.510;2023-11-19T13:55:11;9.57;;;2.00;;
39656;SDS011;25337;51.478;7.510;2023-11-19T13:57:40;19.70;;;3.42;;
39656;SDS011;25337;51.478;7.510;2023-11-19T14:00:08;17.08;;;2.88;;
39656;SDS011;25337;51.478;7.510;2023-11-19T14:02:41;14.57;;;2.55;;
39656;SDS011;25337;51.478;7.510;2023-11-19T14:05:07;17.83;;;3.42;;
39656;SDS011;25337;51.478;7.510;2023-11-19T14:07:35;10.00;;;2.58;;
39656;SDS011;25337;51.478;7.510;2023-11-19T14:10:01;9.52;;;2.10;;
39656;SDS011;25337;51.478;7.510;2023-11-19T14:12:27;15.75;;;2.55;;
39656;SDS011;25337;51.478;7.510;2023-11-19T14:14:53;29.30;;;2.88;;
39656;SDS011;25337;51.478;7.510;2023-11-19T14:17:19;9.38;;;2.33;;
39656;SDS011;25337;51.478;7.510;2023-11-19T14:19:45;16.35;;;2.90;;
39656;SDS011;25337;51.478;7.510;2023-11-19T14:22:13;18.67;;;3.25;;
39656;SDS011;25337;51.478;7.510;2023-11-19T14:24:39;14.93;;;3.17;;
39656;SDS011;25337;51.478;7.510;2023-11-19T14:27:06;13.20;;;2.75;;
39656;SDS011;25337;51.478;7.510;2023-11-19T14:29:32;19.10;;;3.10;;
39656;SDS011;25337;51.478;7.510;2023-11-19T14:31:59;10.20;;;2.33;;
39656;SDS011;25337;51.478;7.510;2023-11-19T14:34:26;10.93;;;2.65;;
39656;SDS011;25337;51.478;7.510;2023-11-19T14:36:51;12.10;;;2.70;;
39656;SDS011;25337;51.478;7.510;2023-11-19T14:39:18;17.55;;;3.65;;
39656;SDS011;25337;51.478;7.510;2023-11-19T14:41:46;15.93;;;3.40;;
39656;SDS011;25337;51.478;7.510;2023-11-19T14:44:12;17.88;;;3.25;;
39656;SDS011;25337;51.478;7.510;2023-11-19T14:46:38;17.17;;;3.20;;
39656;SDS011;25337;51.478;7.510;2023-11-19T14:49:03;19.55;;;3.42;;
39656;SDS011;25337;51.478;7.510;2023-11-19T14:51:29;13.82;;;3.25;;
39656;SDS011;25337;51.478;7.510;2023-11-19T14:53:55;14.43;;;3.25;;
39656;SDS011;25337;51.478;7.510;2023-11-19T14:56:21;18.13;;;2.78;;
39656;SDS011;25337;51.478;7.510;2023-11-19T14:58:46;14.77;;;3.28;;
39656;SDS011;25337;51.478;7.510;2023-11-19T15:01:12;18.95;;;2.78;;